Time;durP1;ratioP1;P1;durP2;ratioP2;P2;SDS_P1;SDS_P2;PMS_P1;PMS_P2;Temp;Humidity;BMP_temperature;BMP_pressure;BME280_temperature;BME280_humidity;BME280_pressure;Samples;Min_cycle;Max_cycle;Signal;HPM_P1;HPM_P2
2022/06/14 00:01:00;;;;;;;8.70;7.50;;;;;;;;;;780539;178;919129;-65
2022/06/14 00:03:25;;;;;;;12.90;9.33;;;;;;;;;;785538;178;918947;-65
2022/06/14 00:05:51;;;;;;;10.60;7.97;;;;;;;;;;781833;178;921136;-65
2022/06/14 00:08:17;;;;;;;14.50;8.83;;;;;;;;;;780090;178;1020976;-65
2022/06/14 00:10:43;;;;;;;16.40;9.17;;;;;;;;;;785108;178;918451;-64
2022/06/14 00:13:09;;;;;;;12.60;9.80;;;;;;;;;;779511;178;920031;-65
2022/06/14 00:15:35;;;;;;;102.43;12.07;;;;;;;;;;776308;178;918235;-65
2022/06/14 00:18:00;;;;;;;22.10;8.67;;;;;;;;;;778302;179;919092;-64
2022/06/14 00:20:26;;;;;;;16.90;8.77;;;;;;;;;;784290;179;919985;-65
2022/06/14 00:22:52;;;;;;;19.10;8.07;;;;;;;;;;782092;179;928419;-65
2022/06/14 00:25:19;;;;;;;19.13;9.70;;;;;;;;;;779694;179;918387;-66
2022/06/14 00:27:45;;;;;;;10.07;9.02;;;;;;;;;;783858;179;917461;-64
2022/06/14 00:30:11;;;;;;;13.60;8.70;;;;;;;;;;779753;179;918823;-64
2022/06/14 00:32:37;;;;;;;10.50;8.67;;;;;;;;;;779107;179;918720;-63
2022/06/14 00:35:03;;;;;;;9.90;8.60;;;;;;;;;;782610;179;918086;-63
2022/06/14 00:37:29;;;;;;;13.17;10.03;;;;;;;;;;777880;179;919155;-64
2022/06/14 00:39:55;;;;;;;15.43;10.30;;;;;;;;;;775890;179;918281;-64
2022/06/14 00:42:20;;;;;;;11.87;8.63;;;;;;;;;;777663;179;919388;-64
2022/06/14 00:45:06;;;;;;;32.43;9.70;;;;;;;;;;784889;179;919266;-64
2022/06/14 00:47:33;;;;;;;16.63;7.70;;;;;;;;;;780995;179;918832;-64
2022/06/14 00:49:59;;;;;;;25.52;9.38;;;;;;;;;;775897;179;920982;-66
2022/06/14 00:52:25;;;;;;;25.50;8.80;;;;;;;;;;773527;179;919504;-65
2022/06/14 00:54:51;;;;;;;84.17;12.60;;;;;;;;;;784458;179;919829;-65
2022/06/14 00:57:18;;;;;;;73.33;9.73;;;;;;;;;;778939;179;919153;-65
2022/06/14 00:59:44;;;;;;;45.03;9.70;;;;;;;;;;779073;179;926656;-64
2022/06/14 01:02:13;;;;;;;9.93;8.00;;;;;;;;;;777215;179;916344;-65
2022/06/14 01:04:39;;;;;;;24.13;7.07;;;;;;;;;;774250;179;916106;-64
2022/06/14 01:07:21;;;;;;;43.20;8.60;;;;;;;;;;776684;179;916056;-65
2022/06/14 01:09:52;;;;;;;56.10;9.35;;;;;;;;;;776551;179;915312;-65
2022/06/14 01:12:18;;;;;;;15.63;6.63;;;;;;;;;;779978;178;916600;-65
2022/06/14 01:14:44;;;;;;;12.18;6.72;;;;;;;;;;784509;178;916037;-64
2022/06/14 01:17:10;;;;;;;24.87;7.67;;;;;;;;;;778547;178;915437;-64
2022/06/14 01:19:36;;;;;;;57.65;9.93;;;;;;;;;;780134;178;915430;-64
2022/06/14 01:22:16;;;;;;;15.67;6.73;;;;;;;;;;777721;178;915941;-65
2022/06/14 01:24:42;;;;;;;58.10;8.83;;;;;;;;;;778068;178;915106;-64
2022/06/14 01:27:08;;;;;;;80.83;8.47;;;;;;;;;;779592;179;915838;-65
2022/06/14 01:29:34;;;;;;;28.93;6.83;;;;;;;;;;777510;179;916515;-65
2022/06/14 01:32:00;;;;;;;17.53;7.70;;;;;;;;;;777481;179;919014;-65
2022/06/14 01:34:27;;;;;;;27.73;5.97;;;;;;;;;;782197;179;919997;-65
2022/06/14 01:36:52;;;;;;;16.23;5.47;;;;;;;;;;778415;179;1025970;-64
2022/06/14 01:39:18;;;;;;;8.10;5.70;;;;;;;;;;778445;179;919145;-64
2022/06/14 01:42:01;;;;;;;14.77;5.78;;;;;;;;;;783679;179;919590;-64
2022/06/14 01:44:29;;;;;;;9.10;5.50;;;;;;;;;;775659;179;920269;-64
2022/06/14 01:46:58;;;;;;;16.13;6.87;;;;;;;;;;776533;179;915670;-64
2022/06/14 01:52:11;;;;;;;17.33;7.17;;;;;;;;;;776040;180;914801;-64
2022/06/14 01:54:53;;;;;;;17.27;7.17;;;;;;;;;;777757;179;909172;-64
2022/06/14 01:57:19;;;;;;;15.40;6.50;;;;;;;;;;776289;179;916622;-65
2022/06/14 01:59:45;;;;;;;18.80;7.03;;;;;;;;;;784192;179;917584;-64
2022/06/14 02:02:12;;;;;;;41.07;8.57;;;;;;;;;;780657;179;911531;-65
2022/06/14 02:04:40;;;;;;;19.93;8.13;;;;;;;;;;777733;179;912877;-64
2022/06/14 02:07:09;;;;;;;9.67;6.10;;;;;;;;;;778418;179;920052;-64
2022/06/14 02:09:36;;;;;;;14.33;6.63;;;;;;;;;;785934;179;905945;-64
2022/06/14 02:12:03;;;;;;;21.70;8.03;;;;;;;;;;780550;179;919324;-65
2022/06/14 02:14:28;;;;;;;19.43;6.40;;;;;;;;;;778747;179;920376;-65
2022/06/14 02:16:55;;;;;;;12.33;7.03;;;;;;;;;;783656;179;917922;-64
2022/06/14 02:19:27;;;;;;;9.23;6.30;;;;;;;;;;777323;179;919204;-65
2022/06/14 02:21:53;;;;;;;23.10;8.13;;;;;;;;;;776773;179;918495;-64
2022/06/14 02:24:19;;;;;;;8.57;6.80;;;;;;;;;;778870;176;919102;-65
2022/06/14 02:26:46;;;;;;;101.10;13.47;;;;;;;;;;786773;178;919320;-64
2022/06/14 02:29:26;;;;;;;6.23;5.60;;;;;;;;;;780510;178;918486;-64
2022/06/14 02:31:54;;;;;;;7.47;6.65;;;;;;;;;;780536;179;918654;-64
2022/06/14 02:34:20;;;;;;;7.10;6.32;;;;;;;;;;778511;178;918475;-64
2022/06/14 02:36:46;;;;;;;8.30;5.53;;;;;;;;;;781503;179;918735;-64
2022/06/14 02:39:12;;;;;;;8.83;6.33;;;;;;;;;;777605;178;920188;-64
2022/06/14 02:41:39;;;;;;;12.30;6.80;;;;;;;;;;779950;179;919218;-64
2022/06/14 02:44:05;;;;;;;9.05;6.28;;;;;;;;;;778032;179;919113;-65
2022/06/14 02:46:32;;;;;;;9.40;6.47;;;;;;;;;;782573;179;918607;-64
2022/06/14 02:48:57;;;;;;;9.70;6.83;;;;;;;;;;775678;179;919602;-64
2022/06/14 02:51:23;;;;;;;13.83;6.10;;;;;;;;;;777828;179;918570;-64
2022/06/14 02:53:50;;;;;;;10.23;6.20;;;;;;;;;;784079;179;918914;-63
2022/06/14 02:56:18;;;;;;;14.40;6.40;;;;;;;;;;778829;179;920817;-64
2022/06/14 02:58:45;;;;;;;10.20;6.00;;;;;;;;;;780110;179;919384;-64
2022/06/14 03:01:11;;;;;;;7.83;5.97;;;;;;;;;;776218;179;919001;-64
2022/06/14 03:03:39;;;;;;;6.60;5.53;;;;;;;;;;773736;179;918919;-63
2022/06/14 03:06:06;;;;;;;13.62;6.45;;;;;;;;;;776231;179;919763;-64
2022/06/14 03:08:31;;;;;;;8.80;6.20;;;;;;;;;;776420;179;918977;-64
2022/06/14 03:10:58;;;;;;;9.93;5.90;;;;;;;;;;783331;179;919636;-64
2022/06/14 03:13:24;;;;;;;8.87;6.23;;;;;;;;;;778149;179;919311;-62
2022/06/14 03:15:52;;;;;;;9.60;6.67;;;;;;;;;;778965;179;919205;-62
2022/06/14 03:18:18;;;;;;;13.13;6.90;;;;;;;;;;775407;179;918398;-63
2022/06/14 03:21:03;;;;;;;12.17;7.50;;;;;;;;;;781135;179;911578;-63
2022/06/14 03:23:32;;;;;;;9.53;6.40;;;;;;;;;;784534;179;915817;-63
2022/06/14 03:26:01;;;;;;;8.77;6.30;;;;;;;;;;778215;179;916336;-64
2022/06/14 03:28:28;;;;;;;12.85;8.23;;;;;;;;;;777283;179;914533;-64
2022/06/14 03:31:06;;;;;;;17.65;8.13;;;;;;;;;;779320;179;916019;-63
2022/06/14 03:33:33;;;;;;;8.07;7.00;;;;;;;;;;778852;179;925707;-63
2022/06/14 03:35:58;;;;;;;11.05;8.30;;;;;;;;;;779746;176;920167;-62
2022/06/14 03:38:25;;;;;;;11.43;7.40;;;;;;;;;;777435;178;921031;-63
2022/06/14 03:40:51;;;;;;;11.27;8.27;;;;;;;;;;778647;178;918650;-64
2022/06/14 03:43:17;;;;;;;11.40;8.17;;;;;;;;;;785345;178;917567;-63
2022/06/14 03:45:53;;;;;;;11.80;7.90;;;;;;;;;;780043;178;919334;-63
2022/06/14 03:48:18;;;;;;;11.37;8.53;;;;;;;;;;778726;178;919047;-63
2022/06/14 03:50:44;;;;;;;16.13;9.30;;;;;;;;;;778553;178;919160;-63
2022/06/14 03:53:11;;;;;;;15.60;9.35;;;;;;;;;;778052;179;917131;-64
2022/06/14 03:55:42;;;;;;;17.20;9.70;;;;;;;;;;779558;179;915644;-63
2022/06/14 03:58:10;;;;;;;23.00;10.97;;;;;;;;;;781085;179;817903;-64
2022/06/14 04:00:40;;;;;;;21.13;11.50;;;;;;;;;;785070;179;629176;-64
2022/06/14 04:03:07;;;;;;;18.07;12.03;;;;;;;;;;783743;179;620603;-64
2022/06/14 04:05:35;;;;;;;17.60;12.03;;;;;;;;;;781067;179;626538;-65
2022/06/14 04:08:02;;;;;;;21.47;13.80;;;;;;;;;;782131;179;620848;-64
2022/06/14 04:10:31;;;;;;;23.20;14.00;;;;;;;;;;786940;179;628800;-64
2022/06/14 04:13:02;;;;;;;23.70;14.97;;;;;;;;;;782895;179;623536;-66
2022/06/14 04:15:35;;;;;;;26.10;16.97;;;;;;;;;;783486;179;620361;-64
2022/06/14 04:18:02;;;;;;;31.27;17.83;;;;;;;;;;782996;179;631220;-66
2022/06/14 04:20:30;;;;;;;31.23;19.80;;;;;;;;;;779977;179;629663;-63
2022/06/14 04:23:11;;;;;;;35.13;20.20;;;;;;;;;;782149;179;626363;-66
2022/06/14 04:25:39;;;;;;;37.10;18.23;;;;;;;;;;770864;179;617268;-65
2022/06/14 04:28:20;;;;;;;40.20;20.10;;;;;;;;;;780741;179;633179;-65
2022/06/14 04:30:47;;;;;;;63.00;25.00;;;;;;;;;;779343;179;617094;-67
2022/06/14 04:33:14;;;;;;;62.50;26.57;;;;;;;;;;778261;179;1035380;-67
2022/06/14 04:35:43;;;;;;;71.20;29.07;;;;;;;;;;784511;179;626051;-65
2022/06/14 04:38:09;;;;;;;77.00;31.80;;;;;;;;;;782531;179;630166;-65
2022/06/14 04:40:36;;;;;;;113.33;35.07;;;;;;;;;;782632;179;618918;-66
2022/06/14 04:43:02;;;;;;;138.60;32.10;;;;;;;;;;783041;179;636788;-66
2022/06/14 04:45:31;;;;;;;106.20;29.47;;;;;;;;;;786479;179;645142;-66
2022/06/14 04:47:57;;;;;;;94.57;29.17;;;;;;;;;;785584;178;636275;-68
2022/06/14 04:50:24;;;;;;;103.27;29.20;;;;;;;;;;784433;178;617950;-66
2022/06/14 04:52:50;;;;;;;110.20;28.97;;;;;;;;;;786023;178;626586;-65
2022/06/14 04:55:19;;;;;;;83.60;28.10;;;;;;;;;;782411;178;632530;-65
2022/06/14 04:57:45;;;;;;;116.13;27.67;;;;;;;;;;782851;178;653831;-66
2022/06/14 05:00:14;;;;;;;83.67;25.40;;;;;;;;;;782267;178;633120;-66
2022/06/14 05:02:43;;;;;;;75.03;29.13;;;;;;;;;;786447;178;646550;-66
2022/06/14 05:05:09;;;;;;;83.20;27.30;;;;;;;;;;783532;178;639042;-66
2022/06/14 05:07:34;;;;;;;78.07;26.87;;;;;;;;;;783337;179;637240;-67
2022/06/14 05:10:01;;;;;;;74.83;30.23;;;;;;;;;;786787;179;627463;-66
2022/06/14 05:12:29;;;;;;;74.03;29.00;;;;;;;;;;783917;179;817270;-67
2022/06/14 05:15:05;;;;;;;71.30;27.47;;;;;;;;;;783823;179;627447;-66
2022/06/14 05:17:31;;;;;;;81.97;29.60;;;;;;;;;;782228;179;633154;-67
2022/06/14 05:20:11;;;;;;;72.17;30.07;;;;;;;;;;785742;179;624256;-66
2022/06/14 05:22:38;;;;;;;74.53;30.90;;;;;;;;;;785573;179;619112;-67
2022/06/14 05:25:04;;;;;;;60.40;29.80;;;;;;;;;;781123;179;620166;-66
2022/06/14 05:27:46;;;;;;;90.33;31.30;;;;;;;;;;781146;179;616081;-67
2022/06/14 05:30:18;;;;;;;57.77;30.57;;;;;;;;;;779805;179;634317;-67
2022/06/14 05:33:01;;;;;;;67.73;29.87;;;;;;;;;;781236;179;627719;-68
2022/06/14 05:35:29;;;;;;;62.23;28.20;;;;;;;;;;780530;179;625374;-67
2022/06/14 05:38:00;;;;;;;58.13;29.50;;;;;;;;;;786051;179;628625;-67
2022/06/14 05:40:42;;;;;;;65.37;30.07;;;;;;;;;;781995;179;768447;-67
2022/06/14 05:43:22;;;;;;;59.77;31.37;;;;;;;;;;778907;179;616095;-68
2022/06/14 05:45:48;;;;;;;65.10;30.87;;;;;;;;;;781002;179;628139;-67
2022/06/14 05:48:15;;;;;;;60.50;31.70;;;;;;;;;;780735;179;637872;-68
2022/06/14 05:50:41;;;;;;;67.13;29.37;;;;;;;;;;780029;179;651088;-68
2022/06/14 05:53:08;;;;;;;67.23;31.00;;;;;;;;;;786535;179;630690;-68
2022/06/14 05:55:37;;;;;;;75.80;33.50;;;;;;;;;;783827;179;620581;-68
2022/06/14 05:58:07;;;;;;;74.40;31.47;;;;;;;;;;784912;178;629803;-68
2022/06/14 06:00:35;;;;;;;70.87;33.67;;;;;;;;;;783513;178;620664;-68
2022/06/14 06:03:05;;;;;;;76.73;34.50;;;;;;;;;;777875;178;626565;-69
2022/06/14 06:05:31;;;;;;;67.57;33.23;;;;;;;;;;783938;178;630082;-68
2022/06/14 06:07:57;;;;;;;84.27;35.23;;;;;;;;;;782672;178;630933;-70
2022/06/14 06:10:23;;;;;;;81.20;34.67;;;;;;;;;;786747;178;614550;-70
2022/06/14 06:12:49;;;;;;;71.63;35.33;;;;;;;;;;783750;178;648521;-70
2022/06/14 06:15:17;;;;;;;63.23;33.67;;;;;;;;;;784800;178;627211;-69
2022/06/14 06:17:43;;;;;;;69.83;33.30;;;;;;;;;;780171;179;773829;-69
2022/06/14 06:20:15;;;;;;;72.60;33.60;;;;;;;;;;787161;179;635736;-70
2022/06/14 06:22:47;;;;;;;81.10;36.40;;;;;;;;;;784392;179;619157;-71
2022/06/14 06:25:14;;;;;;;71.37;33.00;;;;;;;;;;784169;179;629900;-69
2022/06/14 06:27:40;;;;;;;77.03;37.00;;;;;;;;;;781792;179;627142;-70
2022/06/14 06:30:08;;;;;;;71.40;33.73;;;;;;;;;;787147;179;619017;-70
2022/06/14 06:32:34;;;;;;;68.03;32.70;;;;;;;;;;783231;179;623347;-71
2022/06/14 06:35:00;;;;;;;69.10;37.40;;;;;;;;;;783512;179;623833;-71
2022/06/14 06:37:26;;;;;;;64.60;34.90;;;;;;;;;;786402;179;631904;-71
2022/06/14 06:39:53;;;;;;;62.50;35.77;;;;;;;;;;784977;179;616667;-70
2022/06/14 06:42:21;;;;;;;67.18;35.28;;;;;;;;;;781882;179;918877;-70
2022/06/14 06:44:47;;;;;;;71.40;38.03;;;;;;;;;;780407;180;632161;-70
2022/06/14 06:47:13;;;;;;;58.40;35.30;;;;;;;;;;786472;179;630793;-70
2022/06/14 06:49:45;;;;;;;48.77;29.97;;;;;;;;;;783925;179;621324;-70
2022/06/14 06:52:11;;;;;;;46.67;28.17;;;;;;;;;;783082;179;922156;-70
2022/06/14 06:54:47;;;;;;;35.73;25.90;;;;;;;;;;783255;179;618264;-70
2022/06/14 06:57:14;;;;;;;36.20;24.77;;;;;;;;;;781174;179;628930;-71
2022/06/14 06:59:38;;;;;;;34.07;23.23;;;;;;;;;;779871;179;642967;-71
2022/06/14 07:02:04;;;;;;;33.00;21.90;;;;;;;;;;781147;179;623665;-71
2022/06/14 07:07:02;;;;;;;34.03;20.70;;;;;;;;;;780815;179;622220;-70
2022/06/14 07:09:42;;;;;;;23.73;17.83;;;;;;;;;;783156;178;636169;-70
2022/06/14 07:12:09;;;;;;;33.43;20.83;;;;;;;;;;783664;178;641085;-71
2022/06/14 07:14:39;;;;;;;29.37;18.77;;;;;;;;;;783444;178;624100;-71
2022/06/14 07:17:06;;;;;;;19.60;14.67;;;;;;;;;;788758;178;626935;-71
2022/06/14 07:19:34;;;;;;;16.20;13.30;;;;;;;;;;783890;178;627220;-72
2022/06/14 07:22:01;;;;;;;18.40;12.23;;;;;;;;;;784956;178;629893;-71
2022/06/14 07:24:28;;;;;;;19.50;10.90;;;;;;;;;;781649;178;638151;-70
2022/06/14 07:26:52;;;;;;;13.13;8.50;;;;;;;;;;787820;178;626387;-71
2022/06/14 07:29:19;;;;;;;13.83;11.00;;;;;;;;;;784062;179;628947;-73
2022/06/14 07:31:45;;;;;;;11.90;9.63;;;;;;;;;;784233;179;627494;-71
2022/06/14 07:34:11;;;;;;;8.60;5.77;;;;;;;;;;785874;179;650175;-70
2022/06/14 07:36:51;;;;;;;8.97;6.37;;;;;;;;;;780556;179;626113;-70
2022/06/14 07:39:18;;;;;;;7.27;5.83;;;;;;;;;;782197;179;626296;-70
2022/06/14 07:41:48;;;;;;;9.13;6.27;;;;;;;;;;779751;179;631361;-71
2022/06/14 07:44:14;;;;;;;11.07;7.60;;;;;;;;;;782560;179;633346;-72
2022/06/14 07:46:41;;;;;;;6.17;4.67;;;;;;;;;;788007;179;632509;-71
2022/06/14 07:49:08;;;;;;;12.67;5.80;;;;;;;;;;782930;179;629822;-70
2022/06/14 07:51:35;;;;;;;9.23;5.00;;;;;;;;;;782249;179;625001;-74
2022/06/14 07:54:11;;;;;;;8.33;6.30;;;;;;;;;;787136;179;630062;-71
2022/06/14 07:56:38;;;;;;;7.83;6.00;;;;;;;;;;784511;179;626535;-71
2022/06/14 07:59:04;;;;;;;9.90;6.60;;;;;;;;;;782622;179;636211;-72
2022/06/14 08:01:35;;;;;;;8.50;6.50;;;;;;;;;;781126;179;719832;-72
2022/06/14 08:04:16;;;;;;;8.50;5.60;;;;;;;;;;777392;179;922068;-72
2022/06/14 08:06:55;;;;;;;8.65;6.30;;;;;;;;;;775195;179;919125;-71
2022/06/14 08:09:40;;;;;;;10.17;7.53;;;;;;;;;;775544;179;918661;-73
2022/06/14 08:12:04;;;;;;;6.70;5.53;;;;;;;;;;784085;179;942543;-73
2022/06/14 08:14:33;;;;;;;6.33;4.20;;;;;;;;;;775262;179;628982;-73
2022/06/14 08:16:59;;;;;;;8.80;4.30;;;;;;;;;;783394;179;627991;-72
2022/06/14 08:19:25;;;;;;;6.70;3.93;;;;;;;;;;780914;179;627857;-72
2022/06/14 08:21:52;;;;;;;11.43;4.33;;;;;;;;;;790821;176;625082;-73
2022/06/14 08:24:19;;;;;;;5.20;3.63;;;;;;;;;;786639;178;618773;-73
2022/06/14 08:26:44;;;;;;;6.80;5.03;;;;;;;;;;778447;178;919043;-73
2022/06/14 08:29:24;;;;;;;6.90;3.53;;;;;;;;;;787077;178;629242;-72
2022/06/14 08:31:51;;;;;;;11.43;3.65;;;;;;;;;;781923;178;918921;-73
2022/06/14 08:34:17;;;;;;;9.67;3.80;;;;;;;;;;779707;178;922081;-73
2022/06/14 08:36:43;;;;;;;8.23;4.10;;;;;;;;;;779146;178;915069;-74
2022/06/14 08:39:09;;;;;;;6.82;4.62;;;;;;;;;;785954;178;642197;-73
2022/06/14 08:41:40;;;;;;;4.53;3.77;;;;;;;;;;778070;179;626345;-74
2022/06/14 08:44:10;;;;;;;5.13;3.80;;;;;;;;;;783324;179;614764;-74
2022/06/14 08:46:37;;;;;;;5.83;3.63;;;;;;;;;;782015;179;629712;-74
2022/06/14 08:49:08;;;;;;;6.90;3.77;;;;;;;;;;785781;178;617274;-73
2022/06/14 08:51:33;;;;;;;6.33;3.67;;;;;;;;;;784998;179;630092;-75
2022/06/14 08:54:13;;;;;;;6.57;3.50;;;;;;;;;;780061;179;869545;-74
2022/06/14 08:56:56;;;;;;;6.43;3.90;;;;;;;;;;780933;178;915351;-74
2022/06/14 08:59:25;;;;;;;6.10;3.97;;;;;;;;;;776623;178;915865;-76
2022/06/14 09:02:02;;;;;;;6.33;3.17;;;;;;;;;;775981;179;916481;-73
2022/06/14 09:04:34;;;;;;;4.53;3.30;;;;;;;;;;775982;179;919668;-77
2022/06/14 09:07:00;;;;;;;5.70;3.23;;;;;;;;;;784720;179;902549;-74
2022/06/14 09:09:30;;;;;;;6.27;3.00;;;;;;;;;;780262;179;913892;-76
2022/06/14 09:12:17;;;;;;;8.70;3.17;;;;;;;;;;777683;179;919599;-75
2022/06/14 09:14:47;;;;;;;7.30;2.60;;;;;;;;;;782296;179;709095;-76
2022/06/14 09:17:29;;;;;;;3.00;2.37;;;;;;;;;;779047;179;919030;-76
2022/06/14 09:19:56;;;;;;;10.20;3.10;;;;;;;;;;781730;179;918387;-76
2022/06/14 09:22:32;;;;;;;7.27;3.33;;;;;;;;;;783367;179;917815;-74
2022/06/14 09:25:14;;;;;;;4.10;2.67;;;;;;;;;;779975;179;919392;-74
2022/06/14 09:27:46;;;;;;;3.80;2.37;;;;;;;;;;781143;179;918794;-76
2022/06/14 09:30:15;;;;;;;6.33;2.77;;;;;;;;;;779604;179;918176;-75
2022/06/14 09:35:23;;;;;;;3.37;2.40;;;;;;;;;;783730;178;642330;-76
2022/06/14 09:37:50;;;;;;;13.25;2.90;;;;;;;;;;777762;178;918198;-75
2022/06/14 09:40:34;;;;;;;3.90;2.40;;;;;;;;;;784294;178;918918;-75
2022/06/14 09:43:03;;;;;;;7.90;2.20;;;;;;;;;;778739;178;919885;-78
2022/06/14 09:45:32;;;;;;;5.40;2.30;;;;;;;;;;778878;178;919973;-76
2022/06/14 09:48:12;;;;;;;3.60;1.77;;;;;;;;;;779611;178;919281;-74
2022/06/14 09:50:44;;;;;;;4.23;2.00;;;;;;;;;;775476;179;919021;-74
2022/06/14 09:53:10;;;;;;;2.70;2.10;;;;;;;;;;777593;179;848990;-76
2022/06/14 09:55:36;;;;;;;3.07;2.00;;;;;;;;;;787097;179;616845;-76
2022/06/14 09:58:18;;;;;;;2.70;1.60;;;;;;;;;;781921;179;919394;-75
2022/06/14 10:00:49;;;;;;;3.80;2.70;;;;;;;;;;775502;179;914160;-75
2022/06/14 10:03:22;;;;;;;2.67;1.83;;;;;;;;;;780112;179;914240;-78
2022/06/14 10:05:50;;;;;;;4.00;2.00;;;;;;;;;;779381;179;919320;-77
2022/06/14 10:08:31;;;;;;;3.00;1.80;;;;;;;;;;785530;179;918382;-75
2022/06/14 10:11:03;;;;;;;6.43;2.07;;;;;;;;;;776823;179;915169;-75
2022/06/14 10:13:30;;;;;;;4.17;2.20;;;;;;;;;;780297;179;913934;-76
2022/06/14 10:15:58;;;;;;;7.50;1.80;;;;;;;;;;777810;179;918752;-75
2022/06/14 10:18:36;;;;;;;4.10;1.97;;;;;;;;;;778631;179;918333;-77
2022/06/14 10:21:06;;;;;;;3.43;1.70;;;;;;;;;;782478;179;623675;-74
2022/06/14 10:23:34;;;;;;;8.87;3.27;;;;;;;;;;778457;179;918802;-76
2022/06/14 10:28:54;;;;;;;6.20;1.83;;;;;;;;;;776611;179;918927;-76
2022/06/14 10:31:20;;;;;;;5.33;1.60;;;;;;;;;;776399;179;919247;-77
2022/06/14 10:33:46;;;;;;;6.00;1.83;;;;;;;;;;776092;179;918788;-74
2022/06/14 10:36:30;;;;;;;2.47;1.43;;;;;;;;;;781595;179;919173;-76
2022/06/14 10:39:02;;;;;;;5.60;3.20;;;;;;;;;;786194;179;622722;-75
2022/06/14 10:41:30;;;;;;;6.13;1.57;;;;;;;;;;783875;179;823434;-77
2022/06/14 10:43:56;;;;;;;4.17;2.10;;;;;;;;;;780629;178;877793;-77
2022/06/14 10:46:22;;;;;;;4.47;1.77;;;;;;;;;;780709;178;918525;-79
2022/06/14 10:48:50;;;;;;;4.83;1.97;;;;;;;;;;787161;178;918412;-78
2022/06/14 10:51:17;;;;;;;2.80;1.50;;;;;;;;;;782389;178;919235;-78
2022/06/14 10:53:55;;;;;;;2.93;1.70;;;;;;;;;;780580;178;917918;-77
2022/06/14 10:56:20;;;;;;;5.10;2.73;;;;;;;;;;782373;178;919005;-78
2022/06/14 10:58:46;;;;;;;5.50;2.50;;;;;;;;;;784043;178;939775;-74
2022/06/14 11:01:18;;;;;;;2.40;1.57;;;;;;;;;;782394;178;917343;-76
2022/06/14 11:03:45;;;;;;;4.00;1.90;;;;;;;;;;780755;179;919264;-76
2022/06/14 11:06:21;;;;;;;4.73;2.97;;;;;;;;;;779264;179;918951;-77
2022/06/14 11:09:08;;;;;;;3.65;1.40;;;;;;;;;;781065;179;917166;-74
2022/06/14 11:11:34;;;;;;;4.07;1.80;;;;;;;;;;765236;179;814748;-75
2022/06/14 11:14:00;;;;;;;5.50;2.20;;;;;;;;;;785512;179;814293;-78
2022/06/14 11:16:30;;;;;;;3.10;2.00;;;;;;;;;;777964;179;918287;-77
2022/06/14 11:19:17;;;;;;;2.83;1.40;;;;;;;;;;780294;179;918726;-76
2022/06/14 11:21:39;;;;;;;5.10;1.57;;;;;;;;;;779910;179;918815;-77
2022/06/14 11:24:10;;;;;;;5.40;2.00;;;;;;;;;;782556;179;918995;-76
2022/06/14 11:26:39;;;;;;;3.40;1.70;;;;;;;;;;781835;179;919212;-80
2022/06/14 11:29:05;;;;;;;2.20;1.40;;;;;;;;;;779285;179;919418;-79
2022/06/14 11:31:33;;;;;;;4.23;1.60;;;;;;;;;;772939;179;918865;-76
2022/06/14 11:34:02;;;;;;;3.00;1.70;;;;;;;;;;782084;179;919040;-78
2022/06/14 11:36:30;;;;;;;4.47;1.57;;;;;;;;;;782807;179;981947;-78
2022/06/14 11:38:59;;;;;;;3.85;1.55;;;;;;;;;;777430;179;918844;-76
2022/06/14 11:41:25;;;;;;;2.97;1.80;;;;;;;;;;778889;179;943160;-79
2022/06/14 11:44:06;;;;;;;6.33;1.60;;;;;;;;;;783407;179;814338;-76
2022/06/14 11:46:33;;;;;;;4.43;1.70;;;;;;;;;;779294;179;918689;-78
2022/06/14 11:49:01;;;;;;;8.13;2.03;;;;;;;;;;777913;179;816082;-78
2022/06/14 11:51:36;;;;;;;4.50;1.55;;;;;;;;;;781459;179;817726;-76
2022/06/14 11:54:07;;;;;;;3.80;1.80;;;;;;;;;;777304;179;935795;-78
2022/06/14 11:56:34;;;;;;;5.17;1.93;;;;;;;;;;783275;178;919355;-73
2022/06/14 11:59:15;;;;;;;7.23;1.57;;;;;;;;;;784736;178;918301;-76
2022/06/14 12:01:42;;;;;;;4.13;1.57;;;;;;;;;;780099;178;917913;-77
2022/06/14 12:04:24;;;;;;;4.00;1.50;;;;;;;;;;778896;178;917768;-76
2022/06/14 12:06:56;;;;;;;8.23;3.33;;;;;;;;;;778657;178;922331;-79
2022/06/14 12:09:22;;;;;;;3.47;1.80;;;;;;;;;;777305;178;927548;-80
2022/06/14 12:11:48;;;;;;;2.70;1.50;;;;;;;;;;784724;178;818205;-76
2022/06/14 12:14:20;;;;;;;2.50;1.10;;;;;;;;;;781819;178;1140496;-77
2022/06/14 12:16:45;;;;;;;6.77;1.90;;;;;;;;;;783931;179;629754;-77
2022/06/14 12:19:12;;;;;;;3.90;1.80;;;;;;;;;;781316;179;919045;-78
2022/06/14 12:21:58;;;;;;;5.30;1.87;;;;;;;;;;786400;179;625878;-78
2022/06/14 12:26:34;;;;;;;3.50;1.63;;;;;;;;;;784277;179;615491;-79
2022/06/14 12:26:56;;;;;;;3.57;1.77;;;;;;;;;;777400;179;788617;-79
2022/06/14 12:29:20;;;;;;;3.20;1.40;;;;;;;;;;780690;179;620178;-77
2022/06/14 12:31:47;;;;;;;5.20;2.03;;;;;;;;;;779948;179;917279;-78
2022/06/14 12:34:13;;;;;;;3.23;1.50;;;;;;;;;;786388;179;621843;-78
2022/06/14 12:36:56;;;;;;;3.90;1.50;;;;;;;;;;782044;179;624324;-79
2022/06/14 12:39:23;;;;;;;5.57;1.90;;;;;;;;;;783514;179;627095;-76
2022/06/14 12:42:00;;;;;;;3.97;1.70;;;;;;;;;;782121;179;628167;-79
2022/06/14 12:44:27;;;;;;;3.60;1.80;;;;;;;;;;780480;179;633577;-76
2022/06/14 12:46:53;;;;;;;3.27;1.93;;;;;;;;;;784803;179;620402;-75
2022/06/14 12:49:19;;;;;;;3.70;1.60;;;;;;;;;;781880;179;629691;-73
2022/06/14 12:51:45;;;;;;;2.80;1.87;;;;;;;;;;781269;179;816279;-78
2022/06/14 12:54:13;;;;;;;4.60;1.60;;;;;;;;;;784235;179;816152;-77
2022/06/14 12:56:53;;;;;;;2.00;1.20;;;;;;;;;;780095;179;852700;-74
2022/06/14 12:59:34;;;;;;;4.47;1.63;;;;;;;;;;777224;179;919359;-79
2022/06/14 13:02:03;;;;;;;3.27;1.60;;;;;;;;;;778908;179;915800;-78
2022/06/14 13:04:31;;;;;;;3.87;1.50;;;;;;;;;;781382;179;626196;-77
2022/06/14 13:07:14;;;;;;;2.93;1.30;;;;;;;;;;778853;178;941924;-79
2022/06/14 13:09:55;;;;;;;4.18;1.75;;;;;;;;;;781185;178;919196;-78
2022/06/14 13:12:24;;;;;;;2.70;1.47;;;;;;;;;;783016;178;925191;-80
2022/06/14 13:14:56;;;;;;;2.57;1.57;;;;;;;;;;787432;178;916112;-79
2022/06/14 13:17:21;;;;;;;5.37;1.40;;;;;;;;;;783118;178;816534;-78
2022/06/14 13:19:50;;;;;;;3.40;1.63;;;;;;;;;;783829;178;667480;-79
2022/06/14 13:22:16;;;;;;;3.47;1.50;;;;;;;;;;784464;178;641174;-78
2022/06/14 13:24:48;;;;;;;2.90;1.90;;;;;;;;;;788873;178;653614;-79
2022/06/14 13:27:19;;;;;;;3.30;1.70;;;;;;;;;;782004;179;922060;-78
2022/06/14 13:29:56;;;;;;;4.30;1.27;;;;;;;;;;779415;179;915788;-77
2022/06/14 13:32:23;;;;;;;3.33;1.65;;;;;;;;;;781669;179;915563;-78
2022/06/14 13:34:51;;;;;;;2.20;1.27;;;;;;;;;;779850;179;917365;-74
2022/06/14 13:37:23;;;;;;;4.67;1.40;;;;;;;;;;781197;179;705810;-75
2022/06/14 13:39:50;;;;;;;4.67;1.43;;;;;;;;;;778006;178;918946;-78
2022/06/14 13:42:15;;;;;;;3.70;1.33;;;;;;;;;;780891;179;636824;-76
2022/06/14 13:44:41;;;;;;;3.90;1.60;;;;;;;;;;783271;179;912660;-77
2022/06/14 13:47:08;;;;;;;3.10;1.53;;;;;;;;;;781106;179;914643;-76
2022/06/14 13:49:44;;;;;;;3.60;1.30;;;;;;;;;;780792;179;812145;-76
2022/06/14 13:52:10;;;;;;;3.17;1.43;;;;;;;;;;779238;179;916424;-79
2022/06/14 13:54:37;;;;;;;3.80;1.40;;;;;;;;;;785200;179;741698;-78
2022/06/14 13:57:18;;;;;;;2.77;1.50;;;;;;;;;;764697;182;1107816;-77
2022/06/14 13:59:44;;;;;;;4.00;1.83;;;;;;;;;;768798;179;717972;-78
2022/06/14 14:02:12;;;;;;;4.60;1.90;;;;;;;;;;783620;179;914340;-76
2022/06/14 14:04:38;;;;;;;4.00;1.80;;;;;;;;;;777752;179;922082;-77
2022/06/14 14:07:14;;;;;;;3.83;1.67;;;;;;;;;;788267;179;623013;-77
2022/06/14 14:09:40;;;;;;;3.10;1.83;;;;;;;;;;779124;179;931242;-76
2022/06/14 14:12:06;;;;;;;4.97;1.80;;;;;;;;;;782336;179;624086;-76
2022/06/14 14:14:36;;;;;;;3.43;2.07;;;;;;;;;;783346;179;623151;-77
2022/06/14 14:17:07;;;;;;;2.70;1.33;;;;;;;;;;783538;179;818082;-78
2022/06/14 14:19:43;;;;;;;2.93;1.70;;;;;;;;;;781730;178;813128;-77
2022/06/14 14:22:04;;;;;;;3.93;1.57;;;;;;;;;;784079;178;630548;-75
2022/06/14 14:24:49;;;;;;;6.90;1.80;;;;;;;;;;780114;178;625766;-79
2022/06/14 14:27:29;;;;;;;2.47;1.63;;;;;;;;;;780668;179;627510;-78
2022/06/14 14:29:54;;;;;;;2.97;1.97;;;;;;;;;;781414;178;628636;-78
2022/06/14 14:32:35;;;;;;;3.70;2.10;;;;;;;;;;787867;178;623631;-78
2022/06/14 14:35:06;;;;;;;7.23;1.70;;;;;;;;;;784195;178;628927;-79
2022/06/14 14:37:36;;;;;;;9.80;2.10;;;;;;;;;;780562;178;913383;-78
2022/06/14 14:40:17;;;;;;;5.63;1.97;;;;;;;;;;779812;179;654290;-76
2022/06/14 14:42:44;;;;;;;13.80;2.00;;;;;;;;;;779531;179;622988;-79
2022/06/14 14:45:13;;;;;;;5.50;1.60;;;;;;;;;;780518;179;627110;-78